Time;durP1;ratioP1;P1;durP2;ratioP2;P2;SDS_P1;SDS_P2;PMS_P1;PMS_P2;Temp;Humidity;BMP_temperature;BMP_pressure;BME280_temperature;BME280_humidity;BME280_pressure;Samples;Min_cycle;Max_cycle;Signal;HPM_P1;HPM_P2
2021/03/08 00:02:20;;;;;;;42.85;26.27;;;;;;;3.53;77.94;95857.19;4841037;29;20053;-40
2021/03/08 00:04:50;;;;;;;39.40;23.00;;;;;;;3.13;78.07;95862.78;4828036;29;20062;-42
2021/03/08 00:07:16;;;;;;;34.83;22.42;;;;;;;3.36;77.41;95868.38;4824519;29;20054;-42
2021/03/08 00:09:43;;;;;;;48.40;25.42;;;;;;;3.72;77.44;95871.34;4838839;29;20053;-43
2021/03/08 00:12:09;;;;;;;36.58;23.85;;;;;;;3.86;75.28;95872.22;4842098;29;20137;-41
2021/03/08 00:14:36;;;;;;;38.35;24.80;;;;;;;3.86;76.12;95874.88;4836834;29;20050;-44
2021/03/08 00:17:04;;;;;;;36.35;23.10;;;;;;;3.52;77.49;95883.13;4824642;29;20520;-41
2021/03/08 00:19:33;;;;;;;41.63;25.00;;;;;;;3.68;77.84;95879.16;4836857;29;20057;-41
2021/03/08 00:22:00;;;;;;;42.63;26.35;;;;;;;3.65;78.57;95874.41;4841870;29;20428;-42
2021/03/08 00:24:27;;;;;;;39.92;25.25;;;;;;;3.99;77.34;95874.16;4841179;29;20509;-44
2021/03/08 00:26:53;;;;;;;43.17;25.02;;;;;;;4.04;76.54;95869.81;4841914;29;20472;-44
2021/03/08 00:29:20;;;;;;;41.85;26.80;;;;;;;4.51;74.99;95876.00;4842785;29;20073;-43
2021/03/08 00:31:46;;;;;;;47.20;27.45;;;;;;;4.31;75.42;95869.09;4838013;29;20501;-45
2021/03/08 00:34:13;;;;;;;49.95;29.15;;;;;;;4.14;76.26;95864.31;4824001;29;20058;-42
2021/03/08 00:36:39;;;;;;;52.45;29.60;;;;;;;4.06;76.74;95855.03;4827628;29;20125;-41
2021/03/08 00:39:05;;;;;;;51.40;29.95;;;;;;;3.79;77.74;95853.06;4841623;29;20050;-45
2021/03/08 00:41:32;;;;;;;43.25;24.88;;;;;;;3.86;76.08;95858.03;4833534;29;20050;-43
2021/03/08 00:43:59;;;;;;;37.95;23.90;;;;;;;3.54;74.69;95856.09;4841026;29;20064;-41
2021/03/08 00:46:25;;;;;;;37.72;22.52;;;;;;;3.06;75.84;95861.53;4825366;29;20062;-43
2021/03/08 00:48:52;;;;;;;37.50;23.73;;;;;;;2.70;78.18;95865.41;4841608;29;20110;-43
2021/03/08 00:51:19;;;;;;;34.20;21.75;;;;;;;2.56;77.22;95867.13;4839895;29;20050;-40
2021/03/08 00:53:45;;;;;;;35.60;23.23;;;;;;;2.75;77.98;95878.69;4840328;29;20114;-42
2021/03/08 00:56:12;;;;;;;36.08;22.73;;;;;;;3.26;76.46;95880.00;4843062;29;20069;-40
2021/03/08 00:58:39;;;;;;;34.15;20.55;;;;;;;3.23;73.41;95875.22;4825934;29;20512;-40
2021/03/08 01:01:06;;;;;;;30.75;19.38;;;;;;;3.34;72.23;95863.31;4830049;29;20054;-40
2021/03/08 01:03:32;;;;;;;37.85;22.80;;;;;;;3.45;73.38;95859.44;4833335;29;20054;-40
2021/03/08 01:05:59;;;;;;;29.17;18.33;;;;;;;3.31;71.38;95852.38;4842580;29;20057;-41
2021/03/08 01:08:35;;;;;;;30.00;19.25;;;;;;;3.67;70.34;95858.84;4840049;29;20065;-40
2021/03/08 01:11:03;;;;;;;35.50;22.50;;;;;;;3.69;71.08;95847.84;4842332;29;20233;-39
2021/03/08 01:13:39;;;;;;;27.98;18.25;;;;;;;3.43;70.70;95847.41;4840385;29;20130;-43
2021/03/08 01:16:05;;;;;;;32.17;19.48;;;;;;;3.47;71.84;95841.19;4832812;29;20054;-40
2021/03/08 01:18:32;;;;;;;34.72;22.05;;;;;;;3.42;72.51;95843.16;4841116;29;20172;-40
2021/03/08 01:20:59;;;;;;;32.03;20.80;;;;;;;3.38;72.09;95845.63;4841699;29;20068;-41
2021/03/08 01:23:25;;;;;;;36.85;22.67;;;;;;;3.21;72.15;95843.41;4836432;29;20055;-42
2021/03/08 01:25:52;;;;;;;34.85;21.65;;;;;;;3.30;72.54;95856.16;4829820;29;20068;-40
2021/03/08 01:28:19;;;;;;;37.75;23.48;;;;;;;3.32;72.74;95849.44;4842004;29;20057;-42
2021/03/08 01:30:45;;;;;;;36.78;22.83;;;;;;;3.38;72.94;95850.97;4842277;29;20405;-42
2021/03/08 01:33:12;;;;;;;39.90;24.55;;;;;;;3.09;74.17;95855.59;4840278;29;21000;-42
2021/03/08 01:35:39;;;;;;;46.58;27.42;;;;;;;2.73;76.07;95853.31;4841503;29;20050;-42
2021/03/08 01:38:06;;;;;;;40.70;25.10;;;;;;;2.87;75.81;95838.22;4841127;29;20068;-43
2021/03/08 01:40:37;;;;;;;40.88;27.10;;;;;;;3.11;76.11;95840.06;4841361;29;20103;-42
2021/03/08 01:43:04;;;;;;;46.58;27.02;;;;;;;3.24;75.04;95840.16;4826674;29;20118;-41
2021/03/08 01:45:30;;;;;;;41.78;26.98;;;;;;;3.01;76.71;95841.00;4822952;29;20107;-41
2021/03/08 01:47:57;;;;;;;42.70;25.75;;;;;;;3.26;75.11;95831.88;4823301;29;20145;-43
2021/03/08 01:50:41;;;;;;;43.72;27.85;;;;;;;3.13;75.49;95836.03;4840196;29;20402;-40
2021/03/08 01:53:09;;;;;;;;;;;;;;;3.18;75.77;95830.63;4841422;29;20072;-41
2021/03/08 01:55:36;;;;;;;44.63;26.05;;;;;;;2.47;78.45;95829.59;4826075;29;20315;-41
2021/03/08 01:58:02;;;;;;;43.95;26.70;;;;;;;2.61;78.86;95834.25;4837971;29;20577;-41
2021/03/08 02:00:29;;;;;;;45.33;27.35;;;;;;;2.95;76.24;95826.88;4841053;29;20110;-41
2021/03/08 02:02:57;;;;;;;46.17;26.80;;;;;;;2.48;77.43;95830.38;4841126;29;20136;-40
2021/03/08 02:05:30;;;;;;;43.05;25.30;;;;;;;2.17;78.75;95819.19;4824892;29;20062;-40
2021/03/08 02:07:58;;;;;;;41.05;25.13;;;;;;;2.68;77.51;95826.69;4838039;29;20481;-39
2021/03/08 02:10:28;;;;;;;43.72;26.02;;;;;;;2.95;75.37;95828.78;4841021;29;20057;-39
2021/03/08 02:13:23;;;;;;;42.78;24.85;;;;;;;2.98;75.10;95823.66;4826839;29;20088;-39
2021/03/08 02:15:59;;;;;;;42.25;25.98;;;;;;;2.78;76.01;95831.91;4849984;29;20056;-43
2021/03/08 02:18:48;;;;;;;42.05;25.35;;;;;;;2.77;75.97;95811.63;4841441;29;20132;-41
2021/03/08 02:21:31;;;;;;;43.15;25.27;;;;;;;3.07;74.80;95815.00;4839550;29;20070;-41
2021/03/08 02:24:12;;;;;;;43.03;24.98;;;;;;;2.91;74.84;95806.38;4831518;29;20102;-42
2021/03/08 02:26:39;;;;;;;41.55;25.05;;;;;;;3.11;74.16;95803.44;4839393;29;20058;-41
2021/03/08 02:29:35;;;;;;;46.25;26.95;;;;;;;2.98;74.58;95794.25;4841009;29;20061;-40
2021/03/08 02:32:06;;;;;;;45.20;27.10;;;;;;;2.82;75.67;95803.53;4831443;29;20146;-41
2021/03/08 02:34:39;;;;;;;44.60;26.85;;;;;;;2.89;75.59;95806.66;4821543;29;20111;-42
2021/03/08 02:37:19;;;;;;;43.72;26.95;;;;;;;2.50;76.07;95809.50;4839097;29;20065;-40
2021/03/08 02:39:51;;;;;;;41.20;26.25;;;;;;;2.64;74.64;95810.44;4838409;29;20065;-42
2021/03/08 02:42:29;;;;;;;39.85;24.63;;;;;;;2.44;74.82;95805.28;4840277;29;20062;-42
2021/03/08 02:44:59;;;;;;;39.22;24.25;;;;;;;2.14;76.51;95807.19;4832431;29;20133;-40
2021/03/08 02:47:28;;;;;;;38.35;23.48;;;;;;;2.26;76.85;95812.16;4822859;29;20436;-42
2021/03/08 02:49:57;;;;;;;39.03;24.20;;;;;;;2.63;75.83;95800.81;4823002;29;20062;-43
2021/03/08 02:52:28;;;;;;;35.67;23.40;;;;;;;2.75;74.50;95808.44;4840308;29;20058;-43
2021/03/08 02:54:57;;;;;;;42.03;24.20;;;;;;;2.58;75.37;95796.34;4838225;29;20136;-43
2021/03/08 02:57:28;;;;;;;38.05;23.20;;;;;;;2.90;73.61;95800.25;4822577;29;20082;-44
2021/03/08 02:59:58;;;;;;;38.55;24.63;;;;;;;2.65;73.93;95800.53;4830664;29;20046;-46
2021/03/08 03:02:25;;;;;;;41.42;24.67;;;;;;;2.25;75.69;95795.34;4839592;29;20473;-44
2021/03/08 03:04:53;;;;;;;45.85;25.67;;;;;;;1.95;76.76;95801.78;4835620;29;20536;-41
2021/03/08 03:07:21;;;;;;;40.55;25.13;;;;;;;1.21;79.56;95802.84;4840119;29;20508;-41
2021/03/08 03:09:50;;;;;;;44.72;25.55;;;;;;;1.00;79.84;95797.59;4839672;29;20109;-42
2021/03/08 03:12:17;;;;;;;42.38;25.27;;;;;;;1.42;78.45;95804.28;4839706;29;20061;-41
2021/03/08 03:14:45;;;;;;;41.45;25.75;;;;;;;1.34;78.71;95807.56;4824490;29;20130;-41
2021/03/08 03:17:15;;;;;;;43.38;24.85;;;;;;;1.63;77.73;95794.31;4822663;29;20137;-43
2021/03/08 03:19:48;;;;;;;45.50;26.83;;;;;;;1.24;78.88;95811.09;4822415;29;20065;-41
2021/03/08 03:22:15;;;;;;;44.13;25.65;;;;;;;1.39;78.08;95813.63;4835441;29;20062;-41
2021/03/08 03:24:42;;;;;;;44.58;26.23;;;;;;;1.45;77.93;95810.94;4835012;29;20049;-41
2021/03/08 03:27:13;;;;;;;44.13;27.25;;;;;;;1.30;78.62;95811.84;4839633;29;20093;-42
2021/03/08 03:29:40;;;;;;;40.90;24.90;;;;;;;0.97;80.40;95803.47;4840524;29;20062;-41
2021/03/08 03:32:07;;;;;;;46.05;25.67;;;;;;;0.91;80.77;95807.25;4835876;29;20082;-45
2021/03/08 03:34:34;;;;;;;43.80;26.23;;;;;;;0.96;80.61;95825.88;4823795;29;20064;-41
2021/03/08 03:37:01;;;;;;;47.35;26.73;;;;;;;0.58;82.30;95817.47;4833500;29;20136;-41
2021/03/08 03:39:29;;;;;;;47.80;26.08;;;;;;;1.07;80.51;95824.78;4840985;29;20094;-41
2021/03/08 03:41:56;;;;;;;44.35;26.98;;;;;;;1.34;79.01;95820.88;4837190;29;20137;-41
2021/03/08 03:44:22;;;;;;;43.35;25.20;;;;;;;0.73;80.05;95798.00;4835655;29;20042;-43
2021/03/08 03:46:49;;;;;;;39.75;24.60;;;;;;;0.77;81.19;95816.91;4835310;29;20114;-43
2021/03/08 03:49:17;;;;;;;42.10;24.92;;;;;;;1.01;80.29;95819.72;4843381;29;20066;-43
2021/03/08 03:51:44;;;;;;;44.42;26.65;;;;;;;1.10;79.94;95826.06;4843338;29;20142;-43
2021/03/08 03:54:11;;;;;;;42.15;25.23;;;;;;;1.17;79.03;95830.03;4855324;29;20050;-44
2021/03/08 03:56:47;;;;;;;42.15;25.38;;;;;;;1.04;79.77;95824.50;4843560;29;20134;-43
2021/03/08 03:59:21;;;;;;;41.33;24.83;;;;;;;0.78;80.84;95829.13;4842445;29;20604;-43
2021/03/08 04:01:54;;;;;;;42.85;25.38;;;;;;;0.89;80.19;95822.72;4842835;29;20612;-43
2021/03/08 04:04:27;;;;;;;43.55;25.23;;;;;;;0.95;80.03;95834.94;4833665;29;20054;-42
2021/03/08 04:06:54;;;;;;;39.38;24.00;;;;;;;1.08;79.04;95831.69;4840945;29;20072;-43
2021/03/08 04:09:22;;;;;;;46.88;26.55;;;;;;;1.15;78.56;95837.50;4842798;29;20068;-45
2021/03/08 04:11:56;;;;;;;44.28;28.13;;;;;;;0.72;80.59;95835.56;4843425;29;20114;-45
2021/03/08 04:14:23;;;;;;;;;;;;;;;0.56;80.46;95840.94;4830477;29;20052;-42
2021/03/08 04:16:53;;;;;;;45.55;26.58;;;;;;;0.70;79.77;95825.97;4839631;29;20019;-42
2021/03/08 04:19:22;;;;;;;37.55;23.15;;;;;;;0.55;79.42;95836.66;4843136;29;20054;-44
2021/03/08 04:21:51;;;;;;;37.55;23.25;;;;;;;0.63;79.14;95838.00;4842182;29;20102;-44
2021/03/08 04:24:19;;;;;;;39.90;24.75;;;;;;;0.55;79.20;95833.22;4824260;29;20064;-42
2021/03/08 04:26:48;;;;;;;43.08;24.08;;;;;;;0.51;79.39;95832.94;4838403;29;20057;-42
2021/03/08 04:29:17;;;;;;;39.83;23.75;;;;;;;0.92;78.33;95827.50;4843032;29;20081;-42
2021/03/08 04:31:44;;;;;;;36.53;22.25;;;;;;;1.20;76.28;95843.88;4830079;29;20054;-42
2021/03/08 04:34:11;;;;;;;36.42;22.25;;;;;;;1.31;76.21;95843.56;4824258;29;20164;-43
2021/03/08 04:36:41;;;;;;;38.72;24.00;;;;;;;1.73;74.25;95844.09;4824451;29;20054;-41
2021/03/08 04:39:11;;;;;;;41.38;26.50;;;;;;;1.57;75.05;95843.41;4838787;29;20516;-41
2021/03/08 04:41:37;;;;;;;45.95;26.95;;;;;;;1.34;75.36;95844.88;4836068;29;20057;-40
2021/03/08 04:44:06;;;;;;;45.63;26.02;;;;;;;1.06;76.56;95860.47;4840363;29;20100;-40
2021/03/08 04:46:34;;;;;;;43.33;24.85;;;;;;;1.23;76.02;95849.44;4839396;29;20142;-42
2021/03/08 04:49:03;;;;;;;42.45;26.88;;;;;;;1.02;76.27;95851.44;4842850;29;20056;-41
2021/03/08 04:51:31;;;;;;;43.08;26.73;;;;;;;0.95;76.66;95842.16;4842301;29;20049;-41
2021/03/08 04:54:01;;;;;;;50.50;26.42;;;;;;;1.12;75.99;95851.38;4827352;29;20058;-40
2021/03/08 04:56:32;;;;;;;40.63;24.60;;;;;;;1.28;75.75;95852.09;4823989;29;20192;-38
2021/03/08 04:59:00;;;;;;;41.05;24.73;;;;;;;1.40;74.25;95838.44;4842136;29;20377;-39
2021/03/08 05:01:32;;;;;;;43.55;24.45;;;;;;;1.07;76.26;95848.75;4831494;29;20042;-41
2021/03/08 05:04:02;;;;;;;40.28;24.20;;;;;;;0.96;77.61;95847.19;4823929;29;20065;-43
2021/03/08 05:06:30;;;;;;;39.67;24.17;;;;;;;1.04;77.57;95843.97;4834515;29;20058;-43
2021/03/08 05:08:58;;;;;;;45.50;25.83;;;;;;;1.30;75.77;95855.31;4823507;29;20054;-42
2021/03/08 05:11:25;;;;;;;43.10;26.38;;;;;;;0.31;79.44;95844.44;4840476;29;20050;-42
2021/03/08 05:13:53;;;;;;;38.95;23.17;;;;;;;0.15;79.45;95841.00;4842086;29;20377;-41
2021/03/08 05:16:20;;;;;;;39.08;24.73;;;;;;;0.18;79.50;95837.03;4823004;29;20054;-42
2021/03/08 05:18:48;;;;;;;50.95;26.83;;;;;;;0.06;80.24;95858.56;4824609;29;20064;-40
2021/03/08 05:21:16;;;;;;;32.20;19.58;;;;;;;0.23;77.16;95853.00;4837451;29;20076;-40
2021/03/08 05:23:43;;;;;;;35.55;21.67;;;;;;;0.17;78.10;95848.72;4840065;29;20513;-43
2021/03/08 05:26:11;;;;;;;34.83;22.00;;;;;;;0.34;78.07;95856.41;4841657;29;20053;-41
2021/03/08 05:28:38;;;;;;;37.42;22.25;;;;;;;0.99;76.14;95856.50;4842072;29;20068;-41
2021/03/08 05:31:05;;;;;;;38.67;24.08;;;;;;;0.66;77.16;95877.38;4842499;29;20627;-40
2021/03/08 05:33:33;;;;;;;38.80;22.20;;;;;;;0.67;76.32;95863.78;4824569;29;20421;-40
2021/03/08 05:36:02;;;;;;;34.97;22.08;;;;;;;0.14;77.53;95871.34;4824520;29;20081;-39
2021/03/08 05:38:30;;;;;;;35.15;21.35;;;;;;;-0.12;78.25;95873.22;4840505;29;20432;-41
2021/03/08 05:41:16;;;;;;;34.08;20.75;;;;;;;-0.23;78.09;95876.91;4833007;29;20054;-43
2021/03/08 05:43:46;;;;;;;34.20;20.17;;;;;;;-0.34;79.07;95880.63;4839335;29;20107;-43
2021/03/08 05:46:22;;;;;;;29.25;17.08;;;;;;;-0.49;76.00;95873.41;4840451;29;20054;-43
2021/03/08 05:48:52;;;;;;;28.23;16.83;;;;;;;-0.28;74.91;95883.03;4840269;29;20481;-40
2021/03/08 05:51:58;;;;;;;29.50;16.60;;;;;;;-0.21;74.85;95879.31;4841306;29;20074;-42
2021/03/08 05:54:49;;;;;;;28.77;16.88;;;;;;;-0.11;72.97;95880.13;4840432;29;20137;-43
2021/03/08 05:57:52;;;;;;;28.17;15.68;;;;;;;-0.24;73.55;95876.13;4837517;29;20414;-43
2021/03/08 06:00:38;;;;;;;24.27;15.27;;;;;;;-0.25;72.94;95879.84;4842157;29;20089;-41
2021/03/08 06:03:21;;;;;;;25.42;16.30;;;;;;;0.10;72.31;95885.44;4826932;29;20064;-42
2021/03/08 06:06:25;;;;;;;27.20;15.60;;;;;;;-0.08;71.78;95884.13;4840338;29;20079;-42
2021/03/08 06:09:20;;;;;;;25.33;15.63;;;;;;;-0.23;73.18;95887.53;4834352;29;20508;-41
2021/03/08 06:11:54;;;;;;;28.95;16.48;;;;;;;-0.33;76.00;95887.53;4840293;29;20140;-41
2021/03/08 06:14:27;;;;;;;25.88;15.30;;;;;;;-0.05;73.62;95899.53;4837857;29;20062;-41
2021/03/08 06:16:55;;;;;;;27.27;16.77;;;;;;;0.15;72.18;95902.19;4838412;29;20129;-42
2021/03/08 06:19:22;;;;;;;28.10;16.05;;;;;;;0.22;71.67;95908.03;4838904;29;20061;-45
2021/03/08 06:21:50;;;;;;;23.40;15.60;;;;;;;-0.02;73.38;95907.00;4839628;29;20057;-42
2021/03/08 06:24:18;;;;;;;25.05;15.93;;;;;;;0.21;71.45;95917.09;4836136;29;20133;-43
2021/03/08 06:26:46;;;;;;;24.52;15.85;;;;;;;0.50;70.16;95911.22;4838835;29;20551;-41
2021/03/08 06:29:13;;;;;;;27.23;16.35;;;;;;;0.68;69.14;95909.84;4839853;29;20128;-41
2021/03/08 06:31:43;;;;;;;24.73;16.27;;;;;;;0.21;72.77;95927.75;4837254;29;20054;-41
2021/03/08 06:34:09;;;;;;;27.45;15.98;;;;;;;0.79;69.47;95921.31;4840797;29;20427;-42
2021/03/08 06:36:37;;;;;;;23.67;15.18;;;;;;;0.30;70.23;95919.25;4840448;29;20495;-41
2021/03/08 06:39:04;;;;;;;24.63;16.13;;;;;;;0.71;68.62;95922.63;4840374;29;20236;-42
2021/03/08 06:41:32;;;;;;;24.98;15.75;;;;;;;0.64;69.22;95920.25;4825745;29;20054;-42
2021/03/08 06:44:02;;;;;;;23.92;15.27;;;;;;;0.40;71.15;95929.88;4823237;29;20100;-42
2021/03/08 06:46:29;;;;;;;20.38;14.13;;;;;;;0.41;69.34;95934.13;4822998;29;20054;-41
2021/03/08 06:48:55;;;;;;;21.88;14.63;;;;;;;0.52;69.71;95940.22;4834150;29;20536;-42
2021/03/08 06:51:22;;;;;;;25.98;16.42;;;;;;;0.66;69.25;95939.41;4841366;29;20125;-42
2021/03/08 06:53:48;;;;;;;20.38;14.82;;;;;;;0.56;68.86;95947.44;4838867;29;20393;-42
2021/03/08 06:56:16;;;;;;;20.58;13.82;;;;;;;0.59;67.33;95954.88;4841483;29;20136;-41
2021/03/08 06:59:03;;;;;;;22.13;14.10;;;;;;;0.68;68.22;95953.28;4841568;29;20088;-42
2021/03/08 07:01:35;;;;;;;22.70;13.63;;;;;;;0.34;67.86;95962.88;4834701;29;20050;-42
2021/03/08 07:04:16;;;;;;;20.63;13.88;;;;;;;0.44;69.74;95954.88;4822473;29;20063;-40
2021/03/08 07:07:02;;;;;;;19.05;12.55;;;;;;;1.03;65.94;95959.59;4827535;29;20908;-40
2021/03/08 07:09:29;;;;;;;22.98;13.88;;;;;;;0.49;68.91;95967.38;4841629;29;20060;-41
2021/03/08 07:12:13;;;;;;;20.58;14.38;;;;;;;0.82;68.68;95966.03;4830334;29;20050;-40
2021/03/08 07:14:40;;;;;;;;;;;;;;;0.45;69.07;95967.91;4835693;29;20050;-39
2021/03/08 07:17:32;;;;;;;19.20;12.30;;;;;;;0.93;67.09;95972.94;4839359;29;20011;-41
2021/03/08 07:20:04;;;;;;;19.67;13.00;;;;;;;0.96;67.99;95971.59;4840036;29;20513;-41
2021/03/08 07:22:47;;;;;;;21.48;14.30;;;;;;;0.84;68.59;95971.88;4833703;29;20058;-41
2021/03/08 07:25:30;;;;;;;18.98;13.05;;;;;;;0.45;69.54;95970.56;4825339;29;20485;-40
2021/03/08 07:28:02;;;;;;;20.88;13.55;;;;;;;0.92;68.13;95966.81;4825628;29;20058;-42
2021/03/08 07:30:30;;;;;;;17.98;13.48;;;;;;;1.21;66.31;95968.06;4829468;29;20057;-43
2021/03/08 07:32:59;;;;;;;22.77;13.65;;;;;;;1.31;64.84;95968.84;4842736;29;20508;-42
2021/03/08 07:35:35;;;;;;;21.27;13.23;;;;;;;1.07;66.80;95966.00;4843604;29;20102;-41
2021/03/08 07:38:03;;;;;;;19.95;14.18;;;;;;;1.87;64.42;95976.56;4842824;29;20149;-41
2021/03/08 07:40:31;;;;;;;22.98;13.90;;;;;;;1.73;64.39;95980.94;4837756;29;20484;-40
2021/03/08 07:42:57;;;;;;;18.98;13.27;;;;;;;1.82;64.80;95971.28;4843299;29;20061;-41
2021/03/08 07:45:47;;;;;;;21.58;13.93;;;;;;;2.34;61.60;95975.22;4840886;29;20117;-43
2021/03/08 07:48:16;;;;;;;21.83;14.43;;;;;;;1.90;62.55;95969.91;4833595;29;20402;-42
2021/03/08 07:50:44;;;;;;;22.33;13.77;;;;;;;2.18;63.27;95980.91;4837092;29;20136;-40
2021/03/08 07:53:32;;;;;;;21.63;13.15;;;;;;;2.43;60.21;95983.41;4842846;29;20085;-40
2021/03/08 07:56:00;;;;;;;20.33;13.98;;;;;;;2.32;61.10;95982.69;4843928;29;20126;-41
2021/03/08 07:58:29;;;;;;;19.75;13.35;;;;;;;2.15;61.12;95992.97;4842244;29;20425;-42
2021/03/08 08:00:57;;;;;;;17.42;13.07;;;;;;;2.07;61.68;95994.34;4840492;29;20394;-42
2021/03/08 08:03:25;;;;;;;19.48;13.30;;;;;;;2.34;61.52;95991.25;4837967;29;20062;-45
2021/03/08 08:06:12;;;;;;;18.90;12.70;;;;;;;1.76;65.36;95996.38;4837619;29;20061;-42
2021/03/08 08:08:48;;;;;;;18.98;13.63;;;;;;;2.18;61.76;95996.94;4838136;29;20061;-45
2021/03/08 08:11:20;;;;;;;19.95;13.73;;;;;;;2.01;61.44;95995.44;4836498;29;20156;-41
2021/03/08 08:13:56;;;;;;;21.45;13.27;;;;;;;2.04;62.32;95997.56;4837394;29;20065;-42
2021/03/08 08:16:29;;;;;;;21.58;12.88;;;;;;;1.84;62.63;95998.47;4837658;29;20494;-41
2021/03/08 08:19:03;;;;;;;19.70;13.20;;;;;;;2.25;60.86;96008.91;4838398;29;20212;-43
2021/03/08 08:21:34;;;;;;;;;;;;;;;2.50;60.93;96004.47;4837931;29;20049;-42
2021/03/08 08:24:04;;;;;;;17.15;11.20;;;;;;;2.13;61.08;96003.13;4834685;29;19975;-41
2021/03/08 08:26:31;;;;;;;19.60;12.00;;;;;;;2.10;61.73;95995.66;4843496;29;20053;-41
2021/03/08 08:28:59;;;;;;;20.13;13.45;;;;;;;2.46;60.11;95990.88;4839382;29;20076;-41
2021/03/08 08:31:25;;;;;;;18.08;12.70;;;;;;;2.99;58.08;96001.66;4837917;29;20042;-42
2021/03/08 08:33:54;;;;;;;22.33;13.15;;;;;;;2.40;60.73;96005.34;4835840;29;20054;-41
2021/03/08 08:36:28;;;;;;;19.27;12.68;;;;;;;2.51;61.60;95990.84;4836555;29;20087;-42
2021/03/08 08:38:55;;;;;;;18.20;11.57;;;;;;;2.23;60.77;96004.94;4840292;29;20125;-41
2021/03/08 08:41:27;;;;;;;17.50;11.40;;;;;;;2.86;58.97;95996.97;4838949;29;20062;-41
2021/03/08 08:44:09;;;;;;;15.82;11.60;;;;;;;2.98;58.09;95996.56;4836471;29;20054;-46
2021/03/08 08:46:37;;;;;;;15.35;11.38;;;;;;;2.81;57.99;95995.13;4836596;29;20042;-42
2021/03/08 08:49:16;;;;;;;15.88;11.77;;;;;;;2.37;60.35;95999.75;4837018;29;20048;-42
2021/03/08 08:51:49;;;;;;;16.67;11.15;;;;;;;3.08;56.34;95993.81;4836952;29;20103;-44
2021/03/08 08:54:27;;;;;;;15.85;11.40;;;;;;;2.99;57.55;95996.31;4834581;29;20066;-44
2021/03/08 08:57:12;;;;;;;19.50;11.45;;;;;;;2.94;58.31;96004.38;4835836;29;20583;-41
2021/03/08 08:59:48;;;;;;;14.10;10.77;;;;;;;2.85;57.26;95995.34;4836142;29;20046;-43
2021/03/08 09:04:45;;;;;;;14.63;10.20;;;;;;;2.64;55.35;95984.06;4840178;29;21048;-42
2021/03/08 09:07:25;;;;;;;15.75;10.30;;;;;;;2.94;56.56;95983.00;4837976;29;20061;-41
2021/03/08 09:09:57;;;;;;;15.70;10.30;;;;;;;2.65;58.21;95988.31;4838421;29;20065;-45
2021/03/08 09:12:41;;;;;;;17.80;12.13;;;;;;;2.92;57.21;95995.03;4835934;29;20050;-42
2021/03/08 09:15:11;;;;;;;16.75;11.57;;;;;;;3.43;56.57;95989.97;4833188;29;20133;-42
2021/03/08 09:17:43;;;;;;;16.45;11.00;;;;;;;3.54;55.48;95995.19;4835842;29;20073;-44
2021/03/08 09:20:12;;;;;;;16.80;10.80;;;;;;;2.89;57.78;96004.41;4832378;29;20057;-45
2021/03/08 09:22:44;;;;;;;17.55;9.85;;;;;;;2.90;57.09;95999.88;4834683;29;20056;-44
2021/03/08 09:25:11;;;;;;;13.32;9.68;;;;;;;3.17;54.31;95996.66;4833450;29;20066;-43
2021/03/08 09:27:38;;;;;;;14.68;9.65;;;;;;;3.16;53.44;95992.41;4837863;29;20050;-43
2021/03/08 09:30:12;;;;;;;16.25;10.25;;;;;;;3.16;55.43;96000.44;4834868;29;20513;-44
2021/03/08 09:33:15;;;;;;;13.63;8.98;;;;;;;3.24;51.38;95994.44;4835853;29;20046;-45
2021/03/08 09:35:45;;;;;;;11.48;7.95;;;;;;;3.32;48.12;95988.50;4851278;29;20050;-43
2021/03/08 09:38:14;;;;;;;11.15;8.05;;;;;;;3.76;46.80;95992.78;4834277;29;20093;-43
2021/03/08 09:40:46;;;;;;;13.43;9.32;;;;;;;3.41;49.67;95986.78;4837210;29;20133;-42
2021/03/08 09:43:28;;;;;;;15.48;8.80;;;;;;;3.15;49.38;95983.59;4838089;29;20094;-43
2021/03/08 09:46:05;;;;;;;13.82;9.00;;;;;;;3.28;49.41;95993.63;4833089;29;20069;-42
2021/03/08 09:48:36;;;;;;;14.98;9.70;;;;;;;3.16;52.82;95990.53;4835624;29;20053;-42
2021/03/08 09:51:16;;;;;;;13.15;9.65;;;;;;;3.64;50.66;95989.72;4820486;29;20054;-43
2021/03/08 09:53:47;;;;;;;15.07;10.48;;;;;;;3.93;51.41;95990.44;4833199;29;20058;-41
2021/03/08 09:56:18;;;;;;;14.82;10.02;;;;;;;3.98;51.27;95997.59;4836598;29;20058;-41
2021/03/08 09:58:45;;;;;;;13.65;9.50;;;;;;;3.98;49.33;96001.06;4835632;29;21879;-43
2021/03/08 10:01:22;;;;;;;13.50;9.80;;;;;;;3.97;51.94;95999.47;4832660;29;20054;-48
2021/03/08 10:03:49;;;;;;;14.55;10.15;;;;;;;4.37;51.94;96001.88;4835070;29;20530;-46
2021/03/08 10:06:36;;;;;;;21.63;10.90;;;;;;;3.99;53.31;96007.22;4833716;29;20991;-46
2021/03/08 10:09:22;;;;;;;14.00;10.48;;;;;;;4.65;52.01;95989.41;4835070;29;20046;-44
2021/03/08 10:11:58;;;;;;;16.88;11.43;;;;;;;4.71;51.76;95996.25;4833646;29;20140;-43
2021/03/08 10:14:26;;;;;;;15.48;11.05;;;;;;;4.94;51.37;95999.91;4834998;29;20062;-43
2021/03/08 10:17:10;;;;;;;15.98;11.48;;;;;;;4.96;51.96;95997.72;4840438;29;20061;-43
2021/03/08 10:19:38;;;;;;;15.40;10.52;;;;;;;5.41;51.79;95994.50;4840729;29;20061;-44
2021/03/08 10:22:06;;;;;;;17.58;10.68;;;;;;;5.70;51.47;96002.28;4833790;29;20053;-44
2021/03/08 10:24:40;;;;;;;21.08;11.45;;;;;;;5.27;53.89;96000.66;4834645;29;20060;-45
2021/03/08 10:27:12;;;;;;;17.02;11.73;;;;;;;5.46;55.20;96005.13;4837830;29;20054;-44
2021/03/08 10:29:41;;;;;;;20.60;11.82;;;;;;;4.97;52.55;95998.50;4838126;29;20046;-44
2021/03/08 10:32:09;;;;;;;16.92;11.50;;;;;;;5.26;51.01;96007.09;4836655;29;20490;-45
2021/03/08 10:34:36;;;;;;;19.13;12.57;;;;;;;5.09;52.59;96012.25;4835132;29;20077;-44
2021/03/08 10:37:20;;;;;;;19.30;11.60;;;;;;;5.08;52.42;96010.66;4834889;29;20076;-42
2021/03/08 10:39:50;;;;;;;16.35;11.48;;;;;;;4.65;52.05;96008.16;4833348;29;20057;-45
2021/03/08 10:42:22;;;;;;;19.48;12.85;;;;;;;4.80;53.00;96010.56;4840049;29;20625;-44
2021/03/08 10:44:50;;;;;;;20.73;12.48;;;;;;;5.01;52.12;96007.56;4828965;29;20113;-45
2021/03/08 10:47:17;;;;;;;18.75;12.70;;;;;;;4.97;53.58;96004.66;4838738;29;20397;-47
2021/03/08 10:49:52;;;;;;;15.15;11.50;;;;;;;5.30;52.05;96000.06;4836084;29;20072;-45
2021/03/08 10:52:19;;;;;;;16.50;12.07;;;;;;;4.78;50.21;96002.03;4837163;29;20049;-43
2021/03/08 10:54:46;;;;;;;17.15;11.55;;;;;;;4.83;51.05;96011.88;4832616;29;20157;-45
2021/03/08 10:57:14;;;;;;;15.65;11.18;;;;;;;4.53;50.77;96010.47;4835635;29;20062;-45
2021/03/08 10:59:49;;;;;;;16.17;11.00;;;;;;;4.19;50.46;96006.13;4837041;29;20114;-43
2021/03/08 11:02:17;;;;;;;14.88;10.77;;;;;;;4.40;50.10;96004.75;4840506;29;20053;-44
2021/03/08 11:04:46;;;;;;;14.35;10.77;;;;;;;4.55;52.14;95993.03;4843224;29;20054;-46
2021/03/08 11:07:31;;;;;;;15.50;10.38;;;;;;;5.16;47.89;96001.91;4843441;29;20054;-47
2021/03/08 11:09:57;;;;;;;15.98;10.32;;;;;;;5.23;47.13;95985.44;4837408;29;20057;-47
2021/03/08 11:12:24;;;;;;;13.10;9.77;;;;;;;5.97;45.37;95998.78;4840899;29;20077;-44
2021/03/08 11:14:56;;;;;;;15.65;10.50;;;;;;;5.21;47.35;95958.94;4841698;29;20088;-46
2021/03/08 11:17:40;;;;;;;14.07;10.32;;;;;;;5.83;48.84;95985.34;4843026;29;20081;-45
2021/03/08 11:20:09;;;;;;;15.52;11.02;;;;;;;6.16;49.58;95991.38;4843982;29;20137;-45
2021/03/08 11:23:08;;;;;;;18.08;11.50;;;;;;;6.07;48.13;95994.00;4838421;29;20054;-45
2021/03/08 11:25:38;;;;;;;17.13;11.10;;;;;;;6.81;45.08;95994.75;4852715;29;20060;-45
2021/03/08 11:28:10;;;;;;;12.90;10.15;;;;;;;7.86;42.01;96005.69;4836053;29;20050;-45
2021/03/08 11:30:39;;;;;;;15.82;11.30;;;;;;;13.08;31.89;95998.19;4838227;29;20056;-46
2021/03/08 11:33:10;;;;;;;15.35;11.20;;;;;;;14.62;28.00;96003.94;4836030;29;20416;-47
2021/03/08 11:35:39;;;;;;;15.90;11.82;;;;;;;15.78;28.27;96003.88;4837278;29;20133;-46
2021/03/08 11:38:13;;;;;;;15.38;10.65;;;;;;;15.23;28.04;96005.16;4838124;29;20073;-43
2021/03/08 11:40:48;;;;;;;20.35;11.55;;;;;;;11.38;33.21;96003.47;4837072;29;20131;-45
2021/03/08 11:43:15;;;;;;;12.60;10.07;;;;;;;8.10;36.49;95996.44;4836334;29;20069;-44
2021/03/08 11:45:42;;;;;;;13.35;10.77;;;;;;;8.69;38.10;95993.31;4835004;29;20073;-43
2021/03/08 11:48:09;;;;;;;13.07;10.70;;;;;;;9.96;33.95;95991.66;4837659;29;20057;-44
2021/03/08 11:50:37;;;;;;;13.98;10.75;;;;;;;13.58;27.90;95993.31;4839193;29;20064;-44